PORT of APPLEDORE

Land: United Kingdom Land: United Kingdom (GB)
Latitude / Longitude: 51.04873° / -4.191162° Toon op kaart Toon op kaart
Lokale Tijd:  UTC +1
UN/LOCODE: GBAPP

Recente Aankomst- en Vertrektijden


Scheepsnaam
Aankomst (UTC)
Aankomst (LT)
Vertrek (UTC)
Vertrek (LT)
Vessel Type: Sleepboot, Loods etc  RNLI LIFEBOAT 16-16 2014-09-28 18:09:00 2014-09-28 19:09:00 2014-09-30 17:48:00 2014-09-30 18:48:00
Vessel Type: Sleepboot, Loods etc  ARCO DART 2014-09-28 07:17:00 2014-09-28 08:17:00 2014-09-28 09:28:00 2014-09-28 10:28:00
Vessel Type: Sleepboot, Loods etc  ARCO DART 2014-09-25 17:05:00 2014-09-25 18:05:00 2014-09-25 19:26:00 2014-09-25 20:26:00
Vessel Type: Sleepboot, Loods etc  RNLI LIFEBOAT 16-16 2014-09-09 19:02:00 2014-09-09 20:02:00 2014-09-23 18:15:00 2014-09-23 19:15:00
Vessel Type: Sleepboot, Loods etc  MANNIN 2014-09-22 15:37:00 2014-09-22 16:37:00
Vessel Type: Sleepboot, Loods etc  ARCO DART 2014-09-13 19:17:00 2014-09-13 20:17:00 2014-09-13 21:49:00 2014-09-13 22:49:00
Vessel Type: Sleepboot, Loods etc  ARCO DART 2014-09-12 18:31:00 2014-09-12 19:31:00 2014-09-12 20:55:00 2014-09-12 21:55:00
Vessel Type: Sleepboot, Loods etc  ARCO DART 2014-09-09 16:26:00 2014-09-09 17:26:00 2014-09-09 19:05:00 2014-09-09 20:05:00
Vessel Type: Vissersboot  HELEN JANE 2 2014-09-04 23:43:00 2014-09-05 00:43:00 2014-09-05 02:20:00 2014-09-05 03:20:00
Vessel Type: Jachten & Overige  KATHLEEN AND MAY 2014-08-30 19:06:00 2014-08-30 20:06:00 2014-08-30 19:20:00 2014-08-30 20:20:00

Verwachte aankomsten


Scheepsnaam
Scheduled Arrival (UTC)
Geplande Aankomst (lokale tijd)
Geschatte Aankomsttijd (UTC)
Geschatte Aankomsttijd (Lokaal)
Geen gegevens gevonden

Wind Forecast


    
Tijd (UTC)
Snelheid
Direction
Temperature
2014-10-02 03:00:00 6 knots 78° 15°C
2014-10-02 06:00:00 6 knots 107° 14°C
2014-10-02 09:00:00 6 knots 143° 14°C
2014-10-02 12:00:00 4 knots 193° 15°C
2014-10-02 15:00:00 5 knots 267° 14°C
2014-10-02 18:00:00 5 knots 246° 14°C
2014-10-02 21:00:00 7 knots 217° 15°C
2014-10-03 00:00:00 12 knots 209° 14°C
2014-10-03 03:00:00 15 knots 212° 14°C
2014-10-03 06:00:00 16 knots 209° 13°C
2014-10-03 09:00:00 18 knots 207° 14°C
2014-10-03 12:00:00 17 knots 215° 17°C
2014-10-03 15:00:00 17 knots 216° 17°C
2014-10-03 18:00:00 18 knots 204° 16°C
2014-10-03 21:00:00 20 knots 199° 14°C
2014-10-04 00:00:00 21 knots 200° 15°C
2014-10-04 03:00:00 24 knots 206° 15°C

NO_PHOTO

No Photos for this port. Be the first to upload one!